Time;durP1;ratioP1;P1;durP2;ratioP2;P2;SDS_P1;SDS_P2;PMS_P1;PMS_P2;Temp;Humidity;BMP_temperature;BMP_pressure;BME280_temperature;BME280_humidity;BME280_pressure;Samples;Min_cycle;Max_cycle;Signal;HPM_P1;HPM_P2
2022/12/27 00:01:50;;;;;;;9.65;4.53;;;;;;;7.79;58.77;102060.50;5087125;28;20036;-71
2022/12/27 00:04:17;;;;;;;9.07;4.32;;;;;;;7.80;58.81;102062.25;5072532;28;20045;-71
2022/12/27 00:06:44;;;;;;;7.65;3.88;;;;;;;7.78;58.66;102065.00;5072747;28;20072;-72
2022/12/27 00:09:10;;;;;;;7.32;3.67;;;;;;;7.79;58.86;102065.88;5072533;28;20044;-72
2022/12/27 00:11:37;;;;;;;9.38;3.92;;;;;;;7.79;58.73;102065.88;5072596;28;20036;-73
2022/12/27 00:14:05;;;;;;;7.22;3.88;;;;;;;7.80;58.88;102070.28;5072660;28;20051;-72
2022/12/27 00:16:33;;;;;;;7.60;4.22;;;;;;;7.81;58.97;102074.69;5072830;28;20046;-73
2022/12/27 00:19:00;;;;;;;10.27;4.55;;;;;;;7.82;58.94;102069.28;5073405;28;20045;-72
2022/12/27 00:21:28;;;;;;;9.52;4.47;;;;;;;7.82;59.04;102069.28;5072860;28;20044;-71
2022/12/27 00:23:56;;;;;;;7.38;4.00;;;;;;;7.82;59.03;102074.63;5072503;28;20045;-71
2022/12/27 00:26:26;;;;;;;8.00;4.07;;;;;;;7.81;58.83;102077.38;5072461;28;20503;-72
2022/12/27 00:28:54;;;;;;;12.23;4.85;;;;;;;7.80;58.98;102079.16;5072372;28;20487;-72
2022/12/27 00:31:22;;;;;;;8.52;4.05;;;;;;;7.80;59.08;102080.97;5072259;28;20489;-72
2022/12/27 00:33:51;;;;;;;7.47;3.70;;;;;;;7.81;58.92;102074.69;5072611;28;20414;-72
2022/12/27 00:36:21;;;;;;;9.27;4.38;;;;;;;7.79;59.09;102082.78;5092579;28;20551;-72
2022/12/27 00:38:49;;;;;;;10.90;4.43;;;;;;;7.77;58.94;102081.97;5095660;28;20036;-72
2022/12/27 00:41:16;;;;;;;10.52;4.38;;;;;;;7.77;59.05;102084.66;5095116;28;20071;-71
2022/12/27 00:43:42;;;;;;;8.25;4.00;;;;;;;7.75;58.93;102091.84;5096103;28;20044;-71
2022/12/27 00:46:09;;;;;;;5.38;3.88;;;;;;;7.74;58.94;102082.09;5096127;28;20039;-72
2022/12/27 00:48:36;;;;;;;10.20;3.95;;;;;;;7.73;59.20;102084.81;5094750;28;20401;-72
2022/12/27 00:51:10;;;;;;;14.38;4.55;;;;;;;7.73;59.12;102083.03;5096006;28;20036;-72
2022/12/27 00:53:38;;;;;;;7.88;4.20;;;;;;;7.75;59.09;102090.97;5077673;28;20050;-72
2022/12/27 00:56:11;;;;;;;7.55;3.97;;;;;;;7.73;59.04;102098.19;5096166;28;20032;-72
2022/12/27 00:58:38;;;;;;;9.98;3.65;;;;;;;7.73;59.15;102100.88;5095740;28;20119;-71
2022/12/27 01:01:07;;;;;;;8.35;3.92;;;;;;;7.72;59.23;102097.31;5095901;28;20545;-72
2022/12/27 01:03:34;;;;;;;11.15;4.35;;;;;;;7.73;59.17;102100.88;5095692;28;20044;-72
2022/12/27 01:06:06;;;;;;;10.05;4.25;;;;;;;7.73;59.36;102109.75;5095897;28;20074;-72
2022/12/27 01:08:32;;;;;;;12.40;4.28;;;;;;;7.73;59.34;102107.09;5093462;28;20058;-72
2022/12/27 01:11:00;;;;;;;8.63;3.85;;;;;;;7.73;59.37;102109.75;5095539;28;20054;-70
2022/12/27 01:13:26;;;;;;;8.20;4.20;;;;;;;7.74;59.36;102113.31;5094906;28;20051;-71
2022/12/27 01:15:53;;;;;;;10.98;4.18;;;;;;;7.74;59.35;102111.50;5094948;28;20032;-72
2022/12/27 01:18:19;;;;;;;9.50;3.97;;;;;;;7.75;59.29;102115.06;5095531;28;20065;-72
2022/12/27 01:20:46;;;;;;;7.57;3.95;;;;;;;7.76;59.38;102116.78;5095676;28;20094;-71
2022/12/27 01:23:13;;;;;;;12.30;3.78;;;;;;;7.76;59.49;102116.78;5095287;28;20448;-71
2022/12/27 01:25:39;;;;;;;7.30;3.88;;;;;;;7.76;59.34;102117.66;5087920;28;20039;-72
2022/12/27 01:28:06;;;;;;;7.78;3.90;;;;;;;7.76;59.49;102122.16;5073541;28;20045;-71
2022/12/27 01:30:33;;;;;;;8.05;3.75;;;;;;;7.77;59.24;102119.41;5075222;28;20040;-71
2022/12/27 01:32:59;;;;;;;12.48;3.88;;;;;;;7.78;59.45;102120.28;5074735;28;20051;-72
2022/12/27 01:35:26;;;;;;;12.00;3.70;;;;;;;7.80;59.43;102131.78;5073794;28;20414;-73
2022/12/27 01:37:52;;;;;;;6.65;3.55;;;;;;;7.79;59.31;102125.56;5073730;28;20036;-73
2022/12/27 01:40:19;;;;;;;10.43;3.70;;;;;;;7.80;59.57;102137.13;5074477;28;20487;-72
2022/12/27 01:42:51;;;;;;;9.88;3.97;;;;;;;7.79;59.40;102146.97;5076544;28;20048;-72
2022/12/27 01:45:19;;;;;;;8.35;4.10;;;;;;;7.80;59.60;102146.03;5075213;28;20064;-71
2022/12/27 01:47:55;;;;;;;8.95;3.72;;;;;;;7.79;59.48;102148.75;5075121;28;20144;-71
2022/12/27 01:50:21;;;;;;;;;;;;;;;7.79;59.61;102152.31;5074602;28;20036;-72
2022/12/27 01:53:12;;;;;;;7.47;3.97;;;;;;;7.80;59.37;102147.84;5092126;28;19920;-72
2022/12/27 01:55:44;;;;;;;7.55;3.78;;;;;;;7.78;59.47;102155.91;5095433;28;20040;-71
2022/12/27 01:58:20;;;;;;;11.40;4.00;;;;;;;7.76;59.40;102157.78;5094837;28;20047;-71
2022/12/27 02:00:48;;;;;;;13.10;3.90;;;;;;;7.75;59.46;102153.34;5093163;28;20032;-72
2022/12/27 02:03:22;;;;;;;10.10;4.03;;;;;;;7.75;59.65;102161.38;5094296;28;20057;-72
2022/12/27 02:05:50;;;;;;;8.43;3.60;;;;;;;7.75;59.65;102157.84;5095130;28;20036;-72
2022/12/27 02:08:25;;;;;;;9.85;3.95;;;;;;;7.76;59.49;102149.75;5094702;28;20043;-72
2022/12/27 02:10:52;;;;;;;;;;;;;;;7.75;59.71;102161.38;5095180;28;20048;-72
2022/12/27 02:13:19;;;;;;;10.60;3.60;;;;;;;7.76;59.56;102164.94;5094391;28;19959;-71
2022/12/27 02:15:47;;;;;;;9.95;3.63;;;;;;;7.75;59.56;102176.56;5094434;28;20113;-72
2022/12/27 02:18:14;;;;;;;5.80;3.40;;;;;;;7.75;59.46;102181.91;5090940;28;20040;-72
2022/12/27 02:21:17;;;;;;;9.00;3.97;;;;;;;7.72;59.57;102177.53;5094598;28;20048;-72
2022/12/27 02:24:17;;;;;;;12.45;3.88;;;;;;;7.71;59.77;102175.81;5094213;28;20102;-72
2022/12/27 02:26:58;;;;;;;11.57;3.75;;;;;;;7.71;59.70;102175.81;5076001;28;20036;-72
2022/12/27 02:29:37;;;;;;;8.98;3.28;;;;;;;7.71;59.77;102180.28;5074038;28;20067;-72
2022/12/27 02:32:11;;;;;;;10.57;3.85;;;;;;;7.71;59.69;102174.94;5073685;28;20105;-72
2022/12/27 02:34:41;;;;;;;8.02;3.42;;;;;;;7.72;59.68;102168.66;5073759;28;20044;-72
2022/12/27 02:37:11;;;;;;;8.68;3.30;;;;;;;7.74;59.84;102172.13;5092096;28;20044;-72
2022/12/27 02:39:42;;;;;;;12.43;3.28;;;;;;;7.76;59.90;102178.31;5094131;28;20047;-72
2022/12/27 02:54:01;;;;;;;10.43;3.25;;;;;;;7.81;60.04;102192.38;5080224;28;20049;-71
2022/12/27 03:03:27;;;;;;;7.22;3.58;;;;;;;7.84;60.07;102185.09;5075480;28;20037;-71
2022/12/27 03:06:40;;;;;;;8.77;3.55;;;;;;;7.84;59.98;102184.22;5073437;28;20132;-72
2022/12/27 03:18:08;;;;;;;8.32;3.50;;;;;;;7.76;60.13;102164.94;5073286;28;20090;-72
2022/12/27 03:26:13;;;;;;;10.98;2.92;;;;;;;7.74;60.24;102175.69;5092174;28;20089;-72
2022/12/27 03:34:38;;;;;;;13.90;3.50;;;;;;;7.74;60.39;102198.88;5073724;28;20052;-72
2022/12/27 03:40:19;;;;;;;6.90;3.95;;;;;;;7.77;60.49;102196.09;5077024;28;20394;-72
2022/12/27 03:43:10;;;;;;;10.07;3.05;;;;;;;7.78;60.51;102208.53;5073077;28;20059;-72
2022/12/27 03:49:02;;;;;;;7.40;3.28;;;;;;;7.80;60.42;102202.19;5070862;28;20040;-72
2022/12/27 03:51:36;;;;;;;8.50;2.92;;;;;;;7.81;60.43;102203.94;5089882;28;20109;-72
2022/12/27 03:54:16;;;;;;;7.05;3.55;;;;;;;7.84;60.49;102213.66;5093374;28;20437;-72
2022/12/27 03:56:42;;;;;;;9.88;3.25;;;;;;;7.84;60.47;102213.66;5093169;28;20067;-72
2022/12/27 03:59:11;;;;;;;9.85;3.25;;;;;;;7.82;60.65;102221.72;5092884;28;20425;-71
2022/12/27 04:01:38;;;;;;;6.70;3.03;;;;;;;7.82;60.53;102228.88;5086878;28;20036;-72
2022/12/27 04:04:04;;;;;;;7.97;3.03;;;;;;;7.80;60.30;102233.41;5082167;28;20047;-71
2022/12/27 04:06:31;;;;;;;14.98;3.85;;;;;;;7.79;60.51;102220.97;5093134;28;20040;-72
2022/12/27 04:36:29;;;;;;;10.13;3.60;;;;;;;7.80;60.71;102220.03;5094708;28;20093;-72
2022/12/27 04:38:55;;;;;;;11.27;4.55;;;;;;;7.81;60.94;102225.34;5096175;28;20086;-72
2022/12/27 04:55:21;;;;;;;8.88;3.50;;;;;;;7.81;61.16;102243.19;5084885;28;20047;-71
2022/12/27 04:57:49;;;;;;;9.63;3.88;;;;;;;7.80;61.07;102242.31;5095954;28;20114;-71
2022/12/27 05:03:08;;;;;;;15.05;4.57;;;;;;;7.80;61.29;102231.59;5095485;28;20046;-71
2022/12/27 05:05:36;;;;;;;17.90;3.58;;;;;;;7.81;61.15;102233.34;5096065;28;20044;-70
2022/12/27 05:16:20;;;;;;;9.38;3.53;;;;;;;7.88;61.18;102268.78;5095789;28;20040;-72
2022/12/27 05:18:47;;;;;;;7.40;3.65;;;;;;;7.89;61.33;102265.16;5095471;28;20119;-72
2022/12/27 05:21:13;;;;;;;11.73;3.78;;;;;;;7.92;61.43;102267.72;5095514;28;20547;-72
2022/12/27 05:26:31;;;;;;;10.40;3.20;;;;;;;7.97;61.24;102269.28;5095566;28;20493;-71
2022/12/27 05:28:59;;;;;;;9.55;3.63;;;;;;;7.98;61.48;102262.16;5094409;28;20044;-72
2022/12/27 05:31:27;;;;;;;9.55;3.35;;;;;;;7.98;61.28;102270.16;5095263;28;20051;-71
2022/12/27 05:33:54;;;;;;;9.05;3.63;;;;;;;7.98;61.15;102271.03;5095276;28;20047;-71
2022/12/27 05:36:21;;;;;;;12.68;3.75;;;;;;;7.97;61.28;102261.28;5095777;28;20127;-71
2022/12/27 05:38:47;;;;;;;7.40;3.35;;;;;;;7.97;61.40;102271.09;5093443;28;20063;-72
2022/12/27 05:41:14;;;;;;;7.47;3.13;;;;;;;7.98;61.05;102272.84;5095267;28;20046;-73
2022/12/27 05:43:41;;;;;;;10.30;3.58;;;;;;;7.99;61.21;102277.25;5093805;28;20054;-72
2022/12/27 05:46:12;;;;;;;9.85;3.30;;;;;;;7.99;61.28;102282.63;5092805;28;20123;-72
2022/12/27 05:48:39;;;;;;;9.77;3.70;;;;;;;7.99;61.29;102282.63;5095257;28;20036;-72
2022/12/27 05:51:13;;;;;;;6.47;3.40;;;;;;;8.00;61.28;102278.13;5094903;28;20036;-72
2022/12/27 05:53:40;;;;;;;7.28;3.10;;;;;;;8.01;61.09;102290.59;5092716;28;20090;-72
2022/12/27 05:56:07;;;;;;;5.53;3.00;;;;;;;8.00;61.10;102297.75;5074735;28;20045;-71
2022/12/27 05:58:34;;;;;;;7.95;3.25;;;;;;;8.00;61.12;102296.88;5074325;28;20046;-72
2022/12/27 06:01:07;;;;;;;10.48;3.22;;;;;;;8.00;61.28;102296.88;5075824;28;20041;-72
2022/12/27 06:03:34;;;;;;;12.07;3.45;;;;;;;7.99;60.97;102298.66;5074191;28;20067;-70
2022/12/27 06:06:03;;;;;;;7.30;3.25;;;;;;;8.00;61.04;102294.19;5074634;28;20071;-72
2022/12/27 06:08:30;;;;;;;7.10;2.78;;;;;;;7.98;60.98;102292.44;5074324;28;20052;-73
2022/12/27 06:11:16;;;;;;;12.52;3.08;;;;;;;7.96;61.14;102304.13;5073972;28;20041;-74
2022/12/27 06:13:49;;;;;;;9.05;3.15;;;;;;;7.94;61.03;102297.97;5074111;28;20513;-74
2022/12/27 06:16:17;;;;;;;6.95;2.83;;;;;;;7.91;61.29;102292.72;5074343;28;20064;-73
2022/12/27 06:18:44;;;;;;;9.57;2.60;;;;;;;7.91;61.08;102296.28;5081531;28;20501;-73
2022/12/27 06:21:19;;;;;;;11.00;3.90;;;;;;;7.90;61.25;102307.03;5080324;28;20044;-74
2022/12/27 06:23:46;;;;;;;;;;;;;;;7.89;61.21;102303.47;5073184;28;20053;-73
2022/12/27 06:26:19;;;;;;;7.00;2.92;;;;;;;7.93;61.39;102306.91;5074134;28;19970;-72
2022/12/27 06:28:48;;;;;;;6.85;2.65;;;;;;;7.93;61.24;102304.25;5074145;28;20052;-72
2022/12/27 06:31:19;;;;;;;10.20;2.97;;;;;;;7.94;61.20;102306.88;5073937;28;20044;-71
2022/12/27 06:33:47;;;;;;;9.23;2.95;;;;;;;7.96;61.31;102301.47;5073830;28;20052;-72
2022/12/27 06:36:16;;;;;;;8.10;2.88;;;;;;;7.96;61.54;102304.13;5075061;28;20449;-73
2022/12/27 06:38:43;;;;;;;11.45;3.05;;;;;;;7.95;61.30;102294.34;5073826;28;20405;-72
2022/12/27 06:41:12;;;;;;;11.38;3.90;;;;;;;7.95;61.30;102300.59;5073849;28;20384;-73
2022/12/27 06:43:39;;;;;;;7.72;3.90;;;;;;;7.94;61.40;102295.28;5073521;28;20127;-73
2022/12/27 06:46:10;;;;;;;9.30;4.75;;;;;;;7.94;61.41;102311.34;5073670;28;20094;-73
2022/12/27 06:48:45;;;;;;;14.18;6.13;;;;;;;7.91;61.51;102304.31;5073518;28;20068;-74
2022/12/27 06:51:13;;;;;;;14.60;6.25;;;;;;;7.93;61.42;102310.47;5073399;28;20051;-73
2022/12/27 06:53:40;;;;;;;14.75;6.40;;;;;;;7.93;61.38;102313.13;5073945;28;20044;-72
2022/12/27 06:56:18;;;;;;;13.00;7.38;;;;;;;7.92;61.61;102318.53;5071832;28;20052;-71
2022/12/27 06:58:46;;;;;;;15.75;5.80;;;;;;;7.93;61.51;102317.63;5072161;28;20048;-72
2022/12/27 07:01:18;;;;;;;14.05;5.90;;;;;;;7.94;61.51;102319.38;5074886;28;20040;-71
2022/12/27 07:03:53;;;;;;;11.38;5.18;;;;;;;7.94;61.43;102316.69;5093532;28;20044;-73
2022/12/27 07:06:22;;;;;;;10.98;5.05;;;;;;;7.92;61.41;102326.56;5092410;28;20476;-72
2022/12/27 07:08:50;;;;;;;11.38;4.50;;;;;;;7.91;61.49;102327.50;5092985;28;20044;-73
2022/12/27 07:11:18;;;;;;;13.10;4.82;;;;;;;7.90;61.45;102337.31;5085446;28;20115;-72
2022/12/27 07:13:47;;;;;;;8.75;4.20;;;;;;;7.90;61.45;102331.09;5089057;28;20400;-72
2022/12/27 07:16:16;;;;;;;11.85;5.05;;;;;;;7.89;61.58;102330.22;5073285;28;20131;-73
2022/12/27 07:18:44;;;;;;;13.13;4.07;;;;;;;7.90;61.35;102333.78;5073065;28;20068;-72
2022/12/27 07:21:13;;;;;;;12.43;4.97;;;;;;;7.89;61.48;102340.06;5073086;28;20055;-73
2022/12/27 07:23:40;;;;;;;9.00;3.60;;;;;;;7.87;61.34;102347.25;5073072;28;20041;-73
2022/12/27 07:26:10;;;;;;;10.93;4.10;;;;;;;7.84;61.43;102342.03;5073044;28;20449;-72
2022/12/27 07:28:38;;;;;;;12.80;4.43;;;;;;;7.82;61.38;102350.09;5078704;28;20460;-73
2022/12/27 07:31:07;;;;;;;10.40;4.20;;;;;;;7.81;61.40;102352.84;5093257;28;20037;-72
2022/12/27 07:33:34;;;;;;;8.73;3.92;;;;;;;7.80;61.37;102353.75;5093045;28;20044;-71
2022/12/27 07:36:02;;;;;;;11.30;4.13;;;;;;;7.76;61.30;102354.81;5093244;28;20482;-71
2022/12/27 07:38:28;;;;;;;8.18;4.05;;;;;;;7.74;61.23;102351.31;5093476;28;20051;-71
2022/12/27 07:41:00;;;;;;;8.23;3.45;;;;;;;7.73;61.21;102355.78;5093240;28;20052;-71
2022/12/27 07:43:33;;;;;;;6.35;3.70;;;;;;;7.74;61.16;102352.19;5093192;28;20040;-71
2022/12/27 07:46:09;;;;;;;9.25;3.25;;;;;;;7.73;61.25;102353.09;5090629;28;20047;-71
2022/12/27 07:48:37;;;;;;;8.48;3.80;;;;;;;7.74;61.38;102353.97;5076238;28;20075;-71
2022/12/27 07:51:04;;;;;;;11.90;3.97;;;;;;;7.71;61.23;102356.75;5077020;28;20058;-72
2022/12/27 07:53:32;;;;;;;13.02;3.90;;;;;;;7.68;61.07;102362.22;5076595;28;20059;-71
2022/12/27 07:55:58;;;;;;;6.90;3.60;;;;;;;7.64;61.18;102365.00;5077260;28;20082;-73
2022/12/27 07:58:25;;;;;;;7.50;3.22;;;;;;;7.64;61.13;102372.16;5076915;28;20041;-72
2022/12/27 08:00:51;;;;;;;7.38;4.18;;;;;;;7.65;61.19;102366.75;5076973;28;20090;-74
2022/12/27 08:03:18;;;;;;;13.38;4.57;;;;;;;7.65;61.23;102374.75;5095037;28;20410;-72
2022/12/27 08:05:48;;;;;;;10.23;3.97;;;;;;;7.66;61.14;102372.97;5096975;28;20205;-72
2022/12/27 08:08:16;;;;;;;10.20;3.60;;;;;;;7.65;60.83;102379.25;5096917;28;20040;-72
2022/12/27 08:10:43;;;;;;;8.13;3.58;;;;;;;7.65;61.17;102387.25;5094472;28;20075;-72
2022/12/27 08:13:10;;;;;;;11.88;3.72;;;;;;;7.65;61.13;102385.47;5096470;28;20056;-72
2022/12/27 08:15:38;;;;;;;8.98;3.60;;;;;;;7.67;61.09;102379.19;5096638;28;20518;-72
2022/12/27 08:18:05;;;;;;;13.00;3.88;;;;;;;7.71;61.22;102387.06;5096677;28;20067;-71
2022/12/27 08:20:34;;;;;;;4.57;3.17;;;;;;;7.77;61.34;102385.97;5095039;28;20032;-72
2022/12/27 08:23:01;;;;;;;11.00;4.07;;;;;;;7.84;61.25;102396.38;5096330;28;20044;-70
2022/12/27 08:25:28;;;;;;;11.38;3.65;;;;;;;7.93;61.38;102396.06;5097020;28;20544;-72
2022/12/27 08:28:03;;;;;;;7.18;3.72;;;;;;;8.03;61.43;102396.63;5095348;28;20048;-69
2022/12/27 08:30:29;;;;;;;11.93;3.38;;;;;;;8.15;61.35;102397.97;5095243;28;20079;-72
2022/12/27 08:32:56;;;;;;;10.13;3.75;;;;;;;8.26;61.33;102403.84;5090190;28;20041;-73
2022/12/27 08:35:23;;;;;;;9.40;3.33;;;;;;;8.33;61.44;102405.41;5075945;28;20475;-73
2022/12/27 08:38:09;;;;;;;11.10;3.88;;;;;;;8.45;61.39;102404.06;5076119;28;20047;-73
2022/12/27 08:40:41;;;;;;;8.77;3.25;;;;;;;8.57;61.42;102399.13;5076165;28;20046;-72
2022/12/27 08:43:08;;;;;;;7.45;3.25;;;;;;;8.69;61.35;102407.63;5078598;28;20072;-73
2022/12/27 08:45:36;;;;;;;8.95;3.78;;;;;;;8.78;61.38;102400.09;5075005;28;20445;-74
2022/12/27 08:48:03;;;;;;;9.60;3.50;;;;;;;8.87;61.44;102393.50;5076309;28;20048;-74
2022/12/27 08:50:31;;;;;;;13.00;4.20;;;;;;;8.94;61.23;102389.69;5076033;28;20046;-73
2022/12/27 08:52:59;;;;;;;10.45;3.53;;;;;;;9.01;61.21;102401.03;5074566;28;20036;-74
2022/12/27 08:55:27;;;;;;;9.40;3.55;;;;;;;9.04;61.04;102399.09;5095671;28;20067;-73
2022/12/27 08:57:58;;;;;;;7.07;3.75;;;;;;;9.05;61.13;102392.81;5103465;28;20032;-69
2022/12/27 09:00:27;;;;;;;9.57;3.58;;;;;;;9.07;60.98;102393.63;5116612;28;20036;-73
2022/12/27 09:02:54;;;;;;;10.07;3.65;;;;;;;9.10;60.94;102397.97;5116223;28;20055;-72
2022/12/27 09:05:21;;;;;;;9.63;3.67;;;;;;;9.13;60.89;102395.19;5113852;27;20040;-72
2022/12/27 09:07:49;;;;;;;12.65;3.75;;;;;;;9.19;60.96;102402.97;5115939;28;20136;-73
2022/12/27 09:10:17;;;;;;;9.35;3.50;;;;;;;9.25;61.03;102400.03;5115391;28;20043;-73
2022/12/27 09:12:44;;;;;;;5.85;3.60;;;;;;;9.32;61.04;102401.53;5113753;28;20067;-72
2022/12/27 09:15:12;;;;;;;7.38;3.70;;;;;;;9.41;60.93;102405.66;5112810;28;20057;-73
2022/12/27 09:17:39;;;;;;;10.45;3.72;;;;;;;9.49;61.10;102401.72;5113899;28;20035;-72
2022/12/27 09:20:06;;;;;;;11.48;3.17;;;;;;;9.57;60.97;102396.03;5114276;28;20516;-73
2022/12/27 09:22:34;;;;;;;8.23;3.67;;;;;;;9.64;61.16;102389.47;5113732;28;20138;-72
2022/12/27 09:25:00;;;;;;;8.18;3.42;;;;;;;9.71;60.77;102390.09;5113739;28;20393;-73
2022/12/27 09:27:27;;;;;;;8.18;3.33;;;;;;;9.73;60.76;102393.59;5115681;28;20048;-72
2022/12/27 09:29:54;;;;;;;7.32;3.83;;;;;;;9.75;60.80;102406.00;5115911;28;20036;-72
2022/12/27 09:32:20;;;;;;;8.38;3.33;;;;;;;9.76;60.41;102398.81;5115496;28;20035;-73
2022/12/27 09:34:47;;;;;;;8.10;3.80;;;;;;;9.76;60.42;102393.47;5116103;28;20047;-72
2022/12/27 09:37:14;;;;;;;5.13;3.50;;;;;;;9.75;60.25;102397.94;5115453;27;20036;-73
2022/12/27 09:39:40;;;;;;;10.40;3.75;;;;;;;9.77;60.14;102400.56;5115623;27;20477;-72
2022/12/27 09:42:24;;;;;;;9.75;3.83;;;;;;;9.77;60.26;102401.44;5114188;28;20400;-71
2022/12/27 09:45:21;;;;;;;8.25;3.97;;;;;;;9.78;60.28;102408.56;5106208;28;20534;-71
2022/12/27 09:47:59;;;;;;;7.70;3.38;;;;;;;9.77;60.44;102411.31;5093018;28;20036;-73
2022/12/27 09:50:32;;;;;;;10.05;3.92;;;;;;;9.77;60.41;102417.53;5093457;28;20052;-70
2022/12/27 09:52:58;;;;;;;8.65;3.67;;;;;;;9.77;60.28;102413.97;5094830;28;20040;-71
2022/12/27 09:55:45;;;;;;;9.48;4.32;;;;;;;9.76;60.53;102420.28;5093786;28;20040;-73
2022/12/27 09:58:34;;;;;;;7.88;3.92;;;;;;;9.77;60.39;102422.91;5094670;28;20154;-72
2022/12/27 10:01:05;;;;;;;8.45;3.80;;;;;;;9.80;60.46;102425.47;5097539;28;20032;-72
2022/12/27 10:03:32;;;;;;;10.07;4.28;;;;;;;9.82;60.52;102431.63;5099570;28;20085;-72
2022/12/27 10:06:14;;;;;;;9.98;4.28;;;;;;;9.84;60.62;102428.88;5094927;28;20446;-73
2022/12/27 10:08:57;;;;;;;10.05;4.07;;;;;;;9.87;60.59;102435.00;5094532;28;20456;-72
2022/12/27 10:11:37;;;;;;;7.03;4.30;;;;;;;9.94;60.52;102430.22;5094302;28;20044;-73
2022/12/27 10:14:14;;;;;;;9.32;3.83;;;;;;;10.00;60.52;102415.69;5094711;28;20044;-73
2022/12/27 10:17:14;;;;;;;10.30;4.40;;;;;;;10.09;60.57;102416.13;5094636;28;20123;-73
2022/12/27 10:19:52;;;;;;;11.35;3.90;;;;;;;10.21;60.76;102420.13;5089557;28;20052;-73
2022/12/27 10:22:21;;;;;;;8.23;4.03;;;;;;;10.29;60.84;102426.03;5093220;28;20052;-73
2022/12/27 10:24:53;;;;;;;7.07;3.85;;;;;;;10.35;60.50;102419.50;5094444;28;20122;-72
2022/12/27 10:27:24;;;;;;;10.48;4.18;;;;;;;10.44;60.68;102420.00;5094252;28;20124;-73
2022/12/27 10:29:53;;;;;;;9.30;3.67;;;;;;;10.53;60.61;102418.69;5093486;28;20078;-72
2022/12/27 10:32:20;;;;;;;10.05;4.07;;;;;;;10.62;60.52;102412.91;5093969;28;20040;-73
2022/12/27 10:34:54;;;;;;;6.10;3.72;;;;;;;10.69;60.69;102427.78;5094385;28;20051;-72
2022/12/27 10:37:21;;;;;;;8.68;3.20;;;;;;;10.78;60.75;102416.63;5094132;28;20521;-73
2022/12/27 10:39:51;;;;;;;8.63;4.05;;;;;;;10.86;60.59;102418.06;5092630;28;20490;-72
2022/12/27 10:42:38;;;;;;;7.43;3.83;;;;;;;10.98;60.42;102421.06;5093648;28;20044;-73
2022/12/27 10:45:35;;;;;;;12.02;3.78;;;;;;;11.11;60.27;102426.72;5094014;28;20075;-73
2022/12/27 10:48:13;;;;;;;10.18;3.75;;;;;;;11.23;60.58;102425.28;5092475;28;20047;-74
2022/12/27 10:51:10;;;;;;;7.00;3.38;;;;;;;11.33;60.52;102418.50;5092884;28;20036;-73
2022/12/27 10:53:52;;;;;;;8.57;3.55;;;;;;;11.45;60.65;102408.00;5080858;28;20121;-73
2022/12/27 10:56:31;;;;;;;7.28;3.70;;;;;;;11.56;60.38;102403.91;5094025;28;20467;-73
2022/12/27 10:59:08;;;;;;;8.52;4.00;;;;;;;11.64;60.20;102405.25;5092168;28;20047;-73
2022/12/27 11:01:35;;;;;;;8.23;3.58;;;;;;;11.73;60.09;102403.91;5093864;28;20048;-75
2022/12/27 11:04:08;;;;;;;7.47;3.83;;;;;;;11.80;59.92;102409.88;5093671;28;20131;-74
2022/12/27 11:06:45;;;;;;;7.30;3.30;;;;;;;11.83;59.68;102410.59;5093733;28;20074;-73
2022/12/27 11:09:31;;;;;;;9.98;3.30;;;;;;;11.88;59.69;102413.94;5093435;28;20040;-72
2022/12/27 11:12:13;;;;;;;6.78;3.35;;;;;;;11.94;59.78;102405.56;5092330;28;20044;-72
2022/12/27 11:14:53;;;;;;;9.68;3.78;;;;;;;12.01;59.40;102408.81;5093529;28;20520;-72
2022/12/27 11:17:24;;;;;;;8.10;3.28;;;;;;;12.07;59.25;102403.09;5093149;28;20043;-74
2022/12/27 11:19:52;;;;;;;7.60;3.67;;;;;;;12.08;59.34;102392.25;5093681;28;20138;-74
2022/12/27 11:22:19;;;;;;;6.50;3.08;;;;;;;12.11;59.10;102385.81;5074221;28;20089;-72
2022/12/27 11:24:47;;;;;;;11.50;3.80;;;;;;;12.12;58.83;102397.47;5093093;28;20044;-73
2022/12/27 11:27:24;;;;;;;6.72;3.20;;;;;;;12.10;58.62;102389.47;5093227;28;20387;-73
2022/12/27 11:29:54;;;;;;;9.52;3.95;;;;;;;12.04;58.74;102398.75;5093364;28;20081;-73
2022/12/27 11:32:22;;;;;;;7.50;4.25;;;;;;;11.97;58.52;102402.72;5092693;28;20048;-73
2022/12/27 11:34:53;;;;;;;7.18;3.60;;;;;;;11.88;58.26;102400.47;5093092;28;20040;-73
2022/12/27 11:37:23;;;;;;;5.07;2.85;;;;;;;11.76;58.14;102403.75;5093320;28;20040;-73
2022/12/27 11:39:53;;;;;;;10.77;3.90;;;;;;;11.71;58.39;102400.44;5093140;28;20044;-74
2022/12/27 11:42:48;;;;;;;9.20;3.58;;;;;;;11.64;58.22;102394.50;5093464;28;20054;-73
2022/12/27 11:45:18;;;;;;;6.75;3.65;;;;;;;11.59;58.13;102396.53;5093267;28;20500;-73
2022/12/27 11:48:02;;;;;;;10.38;4.10;;;;;;;11.51;57.92;102388.00;5093146;28;20040;-73
2022/12/27 11:51:11;;;;;;;7.55;4.03;;;;;;;11.41;57.78;102392.09;5091727;28;20044;-73
2022/12/27 11:53:52;;;;;;;7.25;3.50;;;;;;;11.34;58.12;102388.84;5092672;28;20486;-73
2022/12/27 11:56:34;;;;;;;8.20;4.07;;;;;;;11.28;58.04;102389.13;5093268;28;20052;-72
2022/12/27 11:59:15;;;;;;;7.00;3.63;;;;;;;11.25;58.20;102386.59;5092797;28;20044;-78
2022/12/27 12:02:01;;;;;;;7.75;3.88;;;;;;;11.20;58.48;102391.34;5093011;28;20078;-73
2022/12/27 12:05:08;;;;;;;8.00;3.30;;;;;;;11.13;58.29;102377.28;5091824;28;20440;-72
2022/12/27 12:08:12;;;;;;;6.43;3.38;;;;;;;11.12;58.36;102380.06;5081083;28;20490;-73
2022/12/27 12:10:53;;;;;;;7.10;3.45;;;;;;;11.11;58.00;102368.44;5093037;28;20032;-73
2022/12/27 12:13:38;;;;;;;10.05;3.75;;;;;;;11.10;58.18;102371.19;5092712;28;20089;-72
2022/12/27 12:16:20;;;;;;;9.27;4.13;;;;;;;11.07;58.29;102372.22;5093188;28;20040;-72
2022/12/27 12:19:00;;;;;;;7.93;3.30;;;;;;;11.01;58.37;102360.88;5092962;28;20045;-73
2022/12/27 12:21:52;;;;;;;8.18;4.28;;;;;;;10.99;58.33;102357.41;5092796;28;20418;-72
2022/12/27 12:24:40;;;;;;;9.32;4.32;;;;;;;10.96;58.65;102353.06;5093138;28;20058;-73
2022/12/27 12:27:32;;;;;;;8.80;4.20;;;;;;;10.93;58.55;102344.25;5092943;28;20044;-73
2022/12/27 12:30:16;;;;;;;8.75;3.85;;;;;;;10.89;58.63;102348.03;5092914;28;20040;-72
2022/12/27 12:33:05;;;;;;;9.90;3.80;;;;;;;10.89;58.65;102348.03;5092704;28;20047;-72
2022/12/27 12:35:50;;;;;;;8.02;3.78;;;;;;;10.89;58.76;102343.53;5096731;28;20473;-72
2022/12/27 12:38:21;;;;;;;7.07;4.35;;;;;;;10.90;58.92;102337.22;5096429;28;20524;-72
2022/12/27 12:41:23;;;;;;;9.43;3.75;;;;;;;10.91;58.99;102336.28;5096281;28;20387;-72
2022/12/27 12:44:22;;;;;;;8.27;4.38;;;;;;;10.95;58.84;102337.00;5075966;28;20453;-72
2022/12/27 12:47:10;;;;;;;7.07;3.33;;;;;;;10.98;58.88;102334.16;5076059;28;20051;-72
2022/12/27 12:49:57;;;;;;;6.57;3.38;;;;;;;11.01;58.80;102328.63;5090787;28;20048;-73
2022/12/27 12:52:30;;;;;;;7.53;3.65;;;;;;;11.04;59.19;102323.97;5096101;28;20401;-73
2022/12/27 12:55:18;;;;;;;6.50;3.13;;;;;;;11.07;58.94;102321.13;5096469;28;20145;-72
2022/12/27 12:58:19;;;;;;;6.45;3.63;;;;;;;11.16;59.37;102321.66;5095997;28;20040;-72
2022/12/27 13:00:58;;;;;;;11.10;3.42;;;;;;;11.23;59.20;102318.56;5096202;28;20123;-72
2022/12/27 13:03:24;;;;;;;7.80;3.53;;;;;;;11.29;59.14;102322.78;5095606;28;20044;-73
2022/12/27 13:06:19;;;;;;;8.82;3.50;;;;;;;11.33;59.19;102321.66;5096095;28;20043;-72
2022/12/27 13:09:03;;;;;;;6.55;3.10;;;;;;;11.40;59.23;102310.53;5095918;28;20044;-72
2022/12/27 13:11:41;;;;;;;5.40;2.28;;;;;;;11.48;59.61;102301.19;5095875;28;20486;-73
2022/12/27 13:15:05;;;;;;;7.85;3.03;;;;;;;11.53;59.38;102294.63;5095596;28;20048;-73
2022/12/27 13:18:02;;;;;;;8.10;3.45;;;;;;;11.59;59.44;102285.34;5033435;28;20058;-72
2022/12/27 13:21:06;;;;;;;7.88;3.15;;;;;;;11.62;59.33;102287.88;5033532;28;20092;-73
2022/12/27 13:24:15;;;;;;;5.50;3.25;;;;;;;11.64;59.25;102286.84;5091781;28;20056;-72
2022/12/27 13:27:01;;;;;;;7.00;3.00;;;;;;;11.68;58.99;102274.97;5095374;28;20067;-72
2022/12/27 13:29:44;;;;;;;6.20;3.00;;;;;;;11.70;59.27;102269.50;5095607;28;20036;-71
2022/12/27 13:32:41;;;;;;;9.45;3.08;;;;;;;11.69;59.12;102270.47;5094744;28;20040;-72
2022/12/27 13:35:27;;;;;;;6.43;2.75;;;;;;;11.66;58.94;102262.56;5095295;28;20040;-72
2022/12/27 13:38:49;;;;;;;8.93;3.33;;;;;;;11.64;58.73;102257.25;5095238;28;20052;-72
2022/12/27 13:41:28;;;;;;;12.68;2.90;;;;;;;11.65;58.73;102250.03;5071216;28;20040;-72